Time;durP1;ratioP1;P1;durP2;ratioP2;P2;SDS_P1;SDS_P2;PMS_P1;PMS_P2;Temp;Humidity;BMP_temperature;BMP_pressure;BME280_temperature;BME280_humidity;BME280_pressure;Samples;Min_cycle;Max_cycle;Signal;HPM_P1;HPM_P2
2023/09/13 00:01:11;;;;;;;26.05;11.95;;;;;;;22.29;40.65;100354.56;1703831;84;21342;-79
2023/09/13 00:04:17;;;;;;;28.50;12.93;;;;;;;22.40;40.04;100362.02;1704637;84;21340;-79
2023/09/13 00:07:24;;;;;;;24.15;12.45;;;;;;;22.40;38.80;100360.07;1708609;83;21353;-79
2023/09/13 00:10:29;;;;;;;25.50;11.97;;;;;;;22.45;38.19;100359.31;1703323;84;21370;-78
2023/09/13 00:13:35;;;;;;;33.08;12.95;;;;;;;22.29;38.17;100355.41;1715805;83;21332;-79
2023/09/13 00:16:40;;;;;;;25.17;11.90;;;;;;;22.25;38.81;100354.77;1702292;84;21904;-79
2023/09/13 00:19:45;;;;;;;30.97;12.78;;;;;;;22.33;39.04;100358.53;1716694;83;21265;-79
2023/09/13 00:22:51;;;;;;;28.52;11.70;;;;;;;22.32;39.66;100351.28;1696121;84;21962;-79
2023/09/13 00:25:57;;;;;;;27.13;12.70;;;;;;;22.47;39.63;100350.14;1692630;84;21316;-79
2023/09/13 00:29:05;;;;;;;28.45;12.33;;;;;;;22.55;38.48;100353.06;1691629;84;21370;-79
2023/09/13 00:32:10;;;;;;;30.52;12.95;;;;;;;22.33;38.39;100356.59;1691782;84;21337;-79
2023/09/13 00:35:15;;;;;;;26.52;12.43;;;;;;;22.52;38.25;100355.79;1642345;87;21971;-79
2023/09/13 00:38:21;;;;;;;26.37;11.75;;;;;;;22.58;37.97;100356.16;1643895;87;21340;-78
2023/09/13 00:41:26;;;;;;;22.32;11.43;;;;;;;22.58;37.97;100356.16;1645194;87;21340;-78
2023/09/13 00:44:31;;;;;;;20.65;11.78;;;;;;;22.61;38.34;100354.27;1644803;87;21928;-78
2023/09/13 00:47:37;;;;;;;24.12;10.72;;;;;;;22.54;38.33;100351.38;1645500;87;21891;-78
2023/09/13 00:50:43;;;;;;;23.02;10.60;;;;;;;22.31;38.52;100354.63;1644677;87;21344;-78
2023/09/13 00:53:50;;;;;;;28.30;11.30;;;;;;;22.34;38.51;100353.25;1644924;87;21344;-79
2023/09/13 00:56:56;;;;;;;22.95;11.43;;;;;;;22.37;38.74;100353.59;1644895;87;21356;-78
2023/09/13 01:00:10;;;;;;;23.15;10.65;;;;;;;22.36;38.49;100353.86;1645047;87;21871;-78
2023/09/13 01:03:17;;;;;;;26.12;10.23;;;;;;;22.44;38.12;100355.69;1645031;87;21328;-78
2023/09/13 01:06:23;;;;;;;18.65;10.38;;;;;;;22.34;38.05;100351.86;1644832;87;21348;-78
2023/09/13 01:09:29;;;;;;;23.87;9.63;;;;;;;22.32;37.97;100354.07;1644249;87;21348;-78
2023/09/13 01:12:35;;;;;;;28.65;9.98;;;;;;;22.26;38.15;100355.09;1644841;87;21911;-78
2023/09/13 01:15:44;;;;;;;22.15;10.38;;;;;;;22.31;37.96;100347.66;1645016;87;21360;-78
2023/09/13 01:19:26;;;;;;;21.65;11.12;;;;;;;22.37;37.86;100349.97;1644646;87;21686;-78
2023/09/13 01:22:45;;;;;;;28.98;9.95;;;;;;;22.49;37.56;100348.48;1652631;86;21366;-78
2023/09/13 01:26:26;;;;;;;20.35;9.73;;;;;;;22.25;37.88;100345.02;1715497;83;21312;-78
2023/09/13 01:29:32;;;;;;;19.62;10.10;;;;;;;22.25;37.95;100340.84;1714678;83;21376;-79
2023/09/13 01:32:39;;;;;;;18.32;10.25;;;;;;;21.94;38.57;100341.67;1715487;83;21305;-79
2023/09/13 01:35:44;;;;;;;23.83;11.38;;;;;;;21.89;38.71;100341.58;1704650;84;21356;-78
2023/09/13 01:38:49;;;;;;;28.07;9.65;;;;;;;21.73;39.23;100343.20;1705199;84;22587;-79
2023/09/13 01:42:07;;;;;;;21.90;10.10;;;;;;;21.70;39.89;100342.34;1705794;84;21309;-79
2023/09/13 01:45:16;;;;;;;24.87;11.12;;;;;;;21.76;39.39;100342.73;1706152;84;21625;-78
2023/09/13 01:48:21;;;;;;;22.58;9.93;;;;;;;21.82;39.05;100343.66;1704711;84;21369;-79
2023/09/13 01:51:28;;;;;;;19.40;10.20;;;;;;;21.84;38.72;100340.09;1705017;84;21337;-79
2023/09/13 01:54:34;;;;;;;16.97;9.98;;;;;;;21.87;38.49;100345.14;1697813;84;21347;-79
2023/09/13 01:57:39;;;;;;;23.27;11.05;;;;;;;21.77;38.66;100344.95;1697313;84;21351;-78
2023/09/13 02:00:46;;;;;;;24.60;11.70;;;;;;;21.83;38.73;100349.00;1696389;84;21300;-79
2023/09/13 02:03:53;;;;;;;35.13;13.30;;;;;;;21.56;39.56;100344.57;1697580;84;21855;-79
2023/09/13 02:06:59;;;;;;;34.10;12.58;;;;;;;21.59;39.91;100341.27;1697327;84;21295;-79
2023/09/13 02:10:05;;;;;;;28.25;12.33;;;;;;;21.60;40.09;100338.81;1696864;84;21346;-79
2023/09/13 02:13:11;;;;;;;25.82;11.45;;;;;;;21.78;39.27;100337.73;1697208;84;21351;-79
2023/09/13 02:16:17;;;;;;;28.55;11.12;;;;;;;21.83;38.91;100346.22;1697732;84;21351;-79
2023/09/13 02:19:23;;;;;;;35.58;12.93;;;;;;;21.77;38.53;100343.02;1697699;84;21925;-79
2023/09/13 02:22:29;;;;;;;38.35;18.12;;;;;;;21.78;38.41;100343.86;1701760;84;21639;-78
2023/09/13 02:25:34;;;;;;;37.95;20.72;;;;;;;21.56;38.97;100333.44;1705645;84;21285;-78
2023/09/13 02:28:40;;;;;;;47.38;20.48;;;;;;;21.59;39.57;100341.27;1705391;84;21935;-78
2023/09/13 02:31:46;;;;;;;38.58;18.77;;;;;;;21.50;39.92;100329.39;1705744;84;21337;-78
2023/09/13 02:34:53;;;;;;;33.75;17.80;;;;;;;21.64;39.66;100334.44;1704418;83;21318;-79
2023/09/13 02:37:59;;;;;;;32.10;17.85;;;;;;;21.64;39.65;100334.44;1703493;83;21954;-79
2023/09/13 02:41:05;;;;;;;39.15;18.92;;;;;;;21.57;39.64;100329.55;1698682;84;21316;-79
2023/09/13 02:44:10;;;;;;;42.43;19.12;;;;;;;21.65;39.52;100332.50;1699082;84;21343;-78
2023/09/13 02:47:15;;;;;;;28.77;18.00;;;;;;;21.60;39.54;100325.45;1698559;84;22607;-79
2023/09/13 02:50:21;;;;;;;37.55;18.85;;;;;;;21.61;39.55;100329.36;1699407;84;21476;-78
2023/09/13 02:53:28;;;;;;;32.80;18.30;;;;;;;21.65;39.49;100326.94;1699532;84;21631;-79
2023/09/13 02:56:34;;;;;;;38.38;19.02;;;;;;;21.64;39.58;100328.87;1699483;84;22446;-78
2023/09/13 02:59:40;;;;;;;43.28;20.35;;;;;;;21.71;39.43;100333.44;1698971;84;21366;-78
2023/09/13 03:02:46;;;;;;;39.83;18.87;;;;;;;21.72;39.29;100337.35;1698213;84;21315;-79
2023/09/13 03:05:52;;;;;;;34.65;20.30;;;;;;;21.72;39.28;100333.17;1699448;84;21319;-79
2023/09/13 03:08:58;;;;;;;37.25;19.52;;;;;;;21.72;39.38;100333.73;1699789;84;21307;-79
2023/09/13 03:12:05;;;;;;;39.33;19.12;;;;;;;21.62;39.76;100336.61;1699709;84;21319;-78
2023/09/13 03:15:13;;;;;;;33.83;18.62;;;;;;;21.50;40.15;100334.44;1698757;84;21349;-78
2023/09/13 03:18:19;;;;;;;29.77;18.67;;;;;;;21.73;39.78;100339.59;1699752;84;21335;-79
2023/09/13 03:21:24;;;;;;;30.08;16.48;;;;;;;21.81;39.64;100340.59;1698390;84;21643;-78
2023/09/13 03:24:30;;;;;;;38.80;17.17;;;;;;;21.88;39.21;100327.37;1699605;84;22546;-78
2023/09/13 03:27:35;;;;;;;43.05;17.65;;;;;;;21.83;38.84;100339.77;1700116;84;21621;-79
2023/09/13 03:30:42;;;;;;;33.95;17.73;;;;;;;21.76;38.65;100340.49;1698206;84;21953;-78
2023/09/13 03:33:50;;;;;;;35.67;16.60;;;;;;;21.74;39.07;100344.05;1699792;84;21340;-79
2023/09/13 03:36:56;;;;;;;41.10;17.82;;;;;;;21.76;39.26;100342.73;1700450;82;21346;-79
2023/09/13 03:40:05;;;;;;;38.55;17.65;;;;;;;21.88;39.15;100340.73;1702306;84;21359;-79
2023/09/13 03:43:14;;;;;;;36.25;18.02;;;;;;;22.01;38.81;100342.34;1701566;84;21902;-79
2023/09/13 03:46:20;;;;;;;38.28;16.95;;;;;;;22.18;38.46;100343.25;1701801;84;21295;-79
2023/09/13 03:49:25;;;;;;;39.38;18.80;;;;;;;22.18;38.20;100343.80;1701624;84;21363;-79
2023/09/13 03:52:31;;;;;;;47.10;17.62;;;;;;;22.03;38.38;100341.56;1700451;84;21348;-79
2023/09/13 03:55:37;;;;;;;33.40;17.05;;;;;;;22.16;38.09;100346.84;1701812;84;21957;-79
2023/09/13 03:58:43;;;;;;;37.40;19.07;;;;;;;22.33;37.86;100350.18;1701579;84;21343;-78
2023/09/13 04:01:49;;;;;;;40.60;18.15;;;;;;;22.41;37.89;100353.39;1701036;84;21311;-79
2023/09/13 04:04:56;;;;;;;60.12;19.48;;;;;;;22.42;38.41;100350.05;1701844;84;21313;-79
2023/09/13 04:08:01;;;;;;;39.25;18.02;;;;;;;22.50;38.70;100353.82;1706547;83;21870;-79
2023/09/13 04:11:06;;;;;;;44.77;21.97;;;;;;;22.67;38.67;100352.39;1701717;84;21343;-79
2023/09/13 04:14:12;;;;;;;38.78;18.82;;;;;;;22.76;38.80;100358.39;1701719;84;21308;-78
2023/09/13 04:17:18;;;;;;;39.73;20.15;;;;;;;22.93;38.50;100357.85;1702097;84;21311;-79
2023/09/13 04:20:25;;;;;;;35.00;20.02;;;;;;;23.13;38.16;100358.13;1701938;84;22651;-79
2023/09/13 04:23:32;;;;;;;48.92;20.95;;;;;;;23.25;38.11;100357.19;1701972;84;21307;-79
2023/09/13 04:26:37;;;;;;;41.05;19.55;;;;;;;23.46;37.84;100354.92;1702460;84;21312;-79
2023/09/13 04:29:44;;;;;;;44.45;20.90;;;;;;;23.59;37.72;100361.52;1701602;84;21836;-79
2023/09/13 04:32:50;;;;;;;49.67;20.75;;;;;;;23.75;37.54;100360.32;1700762;84;21359;-79
2023/09/13 04:35:55;;;;;;;33.95;19.35;;;;;;;23.92;37.60;100366.11;1701772;84;21316;-79
2023/09/13 04:39:00;;;;;;;43.17;18.90;;;;;;;24.15;37.35;100361.31;1699264;83;21287;-79
2023/09/13 04:42:07;;;;;;;46.42;19.25;;;;;;;24.18;37.43;100368.62;1702659;84;21882;-79
2023/09/13 04:45:13;;;;;;;35.98;20.95;;;;;;;24.49;37.11;100373.09;1703027;84;21326;-79
2023/09/13 04:48:20;;;;;;;37.93;20.68;;;;;;;24.57;36.89;100374.57;1703361;84;21343;-79
2023/09/13 04:51:26;;;;;;;42.62;21.57;;;;;;;24.56;36.93;100373.73;1702773;83;21354;-79
2023/09/13 04:54:30;;;;;;;38.50;20.20;;;;;;;24.68;36.57;100377.16;1688953;84;21328;-79
2023/09/13 04:57:36;;;;;;;35.40;19.15;;;;;;;24.83;36.67;100378.38;1696139;83;21283;-79
2023/09/13 05:00:42;;;;;;;36.48;17.70;;;;;;;25.04;36.47;100373.22;1703397;83;22634;-79
2023/09/13 05:03:48;;;;;;;36.13;16.65;;;;;;;25.18;36.69;100372.22;1680910;84;21899;-79
2023/09/13 05:06:54;;;;;;;29.25;15.50;;;;;;;25.15;37.27;100375.55;1667035;84;21383;-80
2023/09/13 05:10:01;;;;;;;24.72;14.23;;;;;;;25.35;37.82;100378.45;1663170;84;21369;-80
2023/09/13 05:13:10;;;;;;;36.08;15.63;;;;;;;25.63;37.92;100379.97;1646761;85;22424;-80
2023/09/13 05:16:20;;;;;;;35.68;14.93;;;;;;;25.68;38.38;100382.78;1660704;85;21204;-80
2023/09/13 05:19:29;;;;;;;32.23;17.32;;;;;;;25.87;38.52;100383.72;1618617;86;21917;-80
2023/09/13 05:22:37;;;;;;;28.50;18.80;;;;;;;26.07;38.62;100380.14;1704737;82;21577;-80
2023/09/13 05:25:55;;;;;;;31.68;18.52;;;;;;;26.28;38.70;100381.00;1678308;84;22845;-81
2023/09/13 05:29:02;;;;;;;37.35;21.75;;;;;;;26.39;38.88;100382.68;1698143;84;22383;-81
2023/09/13 05:32:07;;;;;;;44.85;22.73;;;;;;;26.37;38.32;100388.58;1676338;83;21370;-82
2023/09/13 05:35:16;;;;;;;33.83;22.55;;;;;;;26.58;38.01;100387.20;1695712;83;21645;-79
2023/09/13 05:38:27;;;;;;;37.83;22.95;;;;;;;26.62;37.92;100397.58;1697219;83;21314;-80
2023/09/13 05:41:54;;;;;;;42.05;25.08;;;;;;;26.99;37.14;100402.05;1702789;82;21358;-81
2023/09/13 05:44:58;;;;;;;43.33;26.45;;;;;;;26.78;37.22;100394.80;1692125;84;21334;-80
2023/09/13 05:48:04;;;;;;;52.20;29.15;;;;;;;26.91;37.06;100397.87;1701427;84;21303;-80
2023/09/13 05:51:13;;;;;;;58.50;29.50;;;;;;;27.13;36.80;100396.72;1705153;82;21325;-80
2023/09/13 05:54:20;;;;;;;52.27;29.98;;;;;;;27.19;36.18;100402.03;1683147;84;21251;-80
2023/09/13 05:57:25;;;;;;;51.68;28.62;;;;;;;27.35;35.71;100394.98;1647715;85;21359;-79
2023/09/13 06:00:30;;;;;;;46.58;27.82;;;;;;;27.49;35.42;100400.27;1694284;83;21377;-79
2023/09/13 06:03:35;;;;;;;52.05;29.42;;;;;;;27.82;35.02;100413.37;1701389;82;21294;-80
2023/09/13 06:06:41;;;;;;;50.50;29.18;;;;;;;27.89;34.66;100410.51;1701504;82;22472;-79
2023/09/13 06:09:47;;;;;;;59.63;30.27;;;;;;;28.15;34.52;100406.16;1707523;82;21656;-79
2023/09/13 06:12:53;;;;;;;48.87;28.47;;;;;;;28.36;34.12;100408.28;1704607;83;21976;-79
2023/09/13 06:15:58;;;;;;;60.17;29.72;;;;;;;28.40;33.62;100415.02;1706950;82;21283;-79
2023/09/13 06:19:05;;;;;;;54.58;26.93;;;;;;;28.49;33.06;100402.00;1687032;83;21303;-80
2023/09/13 06:22:10;;;;;;;49.83;27.17;;;;;;;28.56;33.18;100409.56;1670108;85;22419;-79
2023/09/13 06:25:17;;;;;;;64.55;28.73;;;;;;;28.68;32.46;100407.76;1702606;83;21339;-79
2023/09/13 06:28:25;;;;;;;54.08;28.02;;;;;;;29.02;31.85;100410.56;1682733;83;21319;-79
2023/09/13 06:31:31;;;;;;;57.25;28.07;;;;;;;29.19;32.02;100415.75;1699192;82;21998;-80
2023/09/13 06:34:41;;;;;;;56.77;27.05;;;;;;;29.21;31.74;100419.09;1698707;82;21310;-80
2023/09/13 06:37:47;;;;;;;51.60;26.65;;;;;;;29.29;31.39;100419.30;1704371;82;21377;-80
2023/09/13 06:40:54;;;;;;;44.55;23.32;;;;;;;29.18;31.25;100419.14;1702072;82;21336;-81
2023/09/13 06:44:01;;;;;;;41.85;22.70;;;;;;;29.39;31.24;100424.55;1705290;82;21861;-79
2023/09/13 06:47:08;;;;;;;52.83;23.52;;;;;;;29.51;30.09;100425.81;1706069;83;21451;-78
2023/09/13 06:50:16;;;;;;;44.27;20.90;;;;;;;29.68;30.27;100421.11;1699284;82;21353;-79
2023/09/13 06:53:23;;;;;;;43.48;21.05;;;;;;;29.94;29.79;100420.80;1702849;81;28154;-79
2023/09/13 06:56:30;;;;;;;48.23;20.75;;;;;;;29.96;29.33;100422.16;1724997;81;22204;-79
2023/09/13 06:59:38;;;;;;;43.42;20.17;;;;;;;30.26;29.07;100420.94;1739201;81;21954;-81
2023/09/13 07:02:46;;;;;;;38.88;20.40;;;;;;;30.38;28.62;100417.64;1711818;81;21180;-78
2023/09/13 07:05:53;;;;;;;43.68;22.80;;;;;;;29.84;28.98;100433.63;1744002;81;21224;-78
2023/09/13 07:09:00;;;;;;;53.95;24.43;;;;;;;30.17;28.04;100426.98;1724728;81;21294;-79
2023/09/13 07:12:05;;;;;;;54.77;30.72;;;;;;;30.21;28.40;100421.59;1736267;81;21334;-79
2023/09/13 07:15:13;;;;;;;48.02;24.95;;;;;;;30.31;28.04;100427.07;1730811;81;21287;-79
2023/09/13 07:18:20;;;;;;;44.03;24.40;;;;;;;30.57;27.46;100421.84;1731775;81;21299;-80
2023/09/13 07:21:25;;;;;;;40.40;21.57;;;;;;;30.59;27.44;100428.05;1727732;81;21298;-80
2023/09/13 07:24:30;;;;;;;43.63;16.57;;;;;;;30.58;27.26;100419.86;1730646;81;21224;-79
2023/09/13 07:27:35;;;;;;;27.75;15.32;;;;;;;30.55;26.94;100423.58;1723525;81;21849;-79
2023/09/13 07:30:41;;;;;;;24.80;13.75;;;;;;;30.62;26.94;100424.59;1726874;81;21204;-80
2023/09/13 07:33:46;;;;;;;29.70;12.53;;;;;;;30.77;26.70;100425.80;1723898;81;21365;-80
2023/09/13 07:36:56;;;;;;;30.82;13.00;;;;;;;30.86;26.34;100431.55;1729711;81;21323;-79
2023/09/13 07:40:01;;;;;;;27.65;11.40;;;;;;;30.92;26.09;100427.52;1729474;81;22392;-80
2023/09/13 07:43:08;;;;;;;23.42;11.50;;;;;;;31.01;26.00;100431.30;1686864;82;21326;-80
2023/09/13 07:46:14;;;;;;;20.88;10.23;;;;;;;31.20;25.92;100428.41;1699122;83;21287;-80
2023/09/13 07:49:19;;;;;;;17.12;9.13;;;;;;;31.29;25.69;100428.57;1737885;81;21318;-79
2023/09/13 07:52:26;;;;;;;15.93;8.25;;;;;;;31.24;25.33;100429.47;1737618;81;21294;-80
2023/09/13 07:55:34;;;;;;;19.67;8.63;;;;;;;31.32;25.66;100434.16;1739193;79;30083;-79
2023/09/13 07:58:40;;;;;;;16.50;8.58;;;;;;;31.36;25.26;100433.22;1769542;79;21302;-78
2023/09/13 08:01:45;;;;;;;21.77;8.70;;;;;;;31.56;25.35;100431.97;1766973;79;21933;-78
2023/09/13 08:04:52;;;;;;;21.05;9.53;;;;;;;31.58;25.29;100426.86;1783741;79;21287;-80
2023/09/13 08:07:57;;;;;;;19.25;10.50;;;;;;;31.71;25.10;100416.67;1751498;79;21290;-80
2023/09/13 08:11:03;;;;;;;17.45;9.15;;;;;;;31.78;24.57;100424.17;1755746;79;21758;-80
2023/09/13 08:14:09;;;;;;;20.00;9.63;;;;;;;31.95;24.69;100427.81;1765134;79;21317;-80
2023/09/13 08:17:14;;;;;;;17.02;7.97;;;;;;;31.93;24.58;100415.38;1774464;79;21651;-80
2023/09/13 08:20:20;;;;;;;18.75;9.43;;;;;;;32.10;24.49;100420.39;1754728;79;21249;-80
2023/09/13 08:23:25;;;;;;;16.02;6.47;;;;;;;32.09;24.17;100415.89;1766804;79;21295;-79
2023/09/13 08:26:31;;;;;;;7.33;4.50;;;;;;;32.14;23.79;100417.19;1774359;79;21306;-80
2023/09/13 08:29:37;;;;;;;13.88;5.03;;;;;;;32.23;23.74;100418.11;1777547;79;21286;-80
2023/09/13 08:32:44;;;;;;;15.08;4.97;;;;;;;32.30;23.74;100422.73;1784767;79;21327;-79
2023/09/13 08:35:49;;;;;;;9.88;5.20;;;;;;;32.29;23.97;100412.58;1740367;79;22716;-80
2023/09/13 08:38:55;;;;;;;13.22;4.00;;;;;;;32.35;23.74;100406.80;1761627;79;21325;-80
2023/09/13 08:42:03;;;;;;;10.38;4.95;;;;;;;32.32;23.49;100413.92;1774014;79;21875;-80
2023/09/13 08:45:07;;;;;;;8.25;3.83;;;;;;;32.10;23.43;100407.66;1755644;79;21314;-79
2023/09/13 08:48:15;;;;;;;16.87;4.37;;;;;;;32.29;23.28;100401.26;1762050;79;21288;-79
2023/09/13 08:51:21;;;;;;;11.10;4.08;;;;;;;32.20;23.47;100405.17;1762189;79;21968;-79
2023/09/13 08:54:27;;;;;;;11.12;3.90;;;;;;;32.41;22.82;100394.22;1759317;79;21287;-79
2023/09/13 08:57:34;;;;;;;11.75;4.03;;;;;;;32.75;22.51;100394.49;1746659;79;29584;-79
2023/09/13 09:00:46;;;;;;;11.43;3.95;;;;;;;32.66;22.60;100390.77;1699514;83;21306;-79
2023/09/13 09:03:50;;;;;;;6.70;3.62;;;;;;;32.77;22.54;100392.16;1724656;81;21316;-80
2023/09/13 09:06:57;;;;;;;8.23;4.05;;;;;;;33.01;22.61;100389.59;1697150;83;21310;-80
2023/09/13 09:10:08;;;;;;;9.65;3.87;;;;;;;33.04;22.30;100391.78;1717707;82;21334;-80
2023/09/13 09:13:13;;;;;;;14.73;4.83;;;;;;;33.29;21.67;100385.39;1724607;82;21907;-80
2023/09/13 09:16:20;;;;;;;11.83;5.12;;;;;;;33.34;21.77;100384.41;1720924;82;21283;-80
2023/09/13 09:19:26;;;;;;;17.37;5.28;;;;;;;33.32;21.40;100387.59;1719138;82;22237;-79
2023/09/13 09:22:33;;;;;;;8.85;5.00;;;;;;;33.37;21.35;100382.94;1708702;82;21336;-81
2023/09/13 09:25:39;;;;;;;9.28;5.12;;;;;;;33.29;21.48;100387.40;1671721;83;21262;-80
2023/09/13 09:28:46;;;;;;;13.62;4.83;;;;;;;33.37;21.77;100384.36;1728827;81;21330;-81
2023/09/13 09:31:53;;;;;;;12.75;4.37;;;;;;;33.55;21.56;100388.96;1723077;82;21299;-80
2023/09/13 09:35:00;;;;;;;10.38;3.72;;;;;;;33.90;21.34;100379.95;1686170;83;21298;-80
2023/09/13 09:38:05;;;;;;;13.22;3.52;;;;;;;33.76;21.16;100385.75;1723481;81;21338;-80
2023/09/13 09:41:11;;;;;;;6.70;3.70;;;;;;;33.70;21.24;100377.16;1721196;81;21299;-82
2023/09/13 09:44:19;;;;;;;20.57;4.12;;;;;;;33.67;21.21;100377.80;1727239;81;21374;-82
2023/09/13 09:47:26;;;;;;;10.05;3.90;;;;;;;33.68;21.01;100373.80;1729389;82;21354;-81
2023/09/13 09:50:32;;;;;;;8.33;4.53;;;;;;;33.67;20.95;100369.30;1723614;81;21902;-81
2023/09/13 09:53:37;;;;;;;16.35;4.30;;;;;;;33.71;20.93;100367.48;1709770;81;21322;-80
2023/09/13 09:56:37;;;;;;;10.25;4.25;;;;;;;33.80;20.80;100362.66;1721619;82;21357;-80
2023/09/13 09:59:43;;;;;;;10.20;4.45;;;;;;;33.91;20.92;100371.68;1711569;81;27005;-80
2023/09/13 10:02:51;;;;;;;17.48;4.08;;;;;;;34.00;20.99;100376.81;1723845;82;21312;-80
2023/09/13 10:06:11;;;;;;;10.65;4.10;;;;;;;33.98;21.01;100377.74;1726402;81;21338;-80
2023/09/13 10:09:17;;;;;;;4.33;3.42;;;;;;;33.79;20.86;100373.77;1717985;83;21334;-78
2023/09/13 10:12:24;;;;;;;8.58;3.75;;;;;;;33.74;20.99;100364.58;1713027;83;21306;-78
2023/09/13 10:15:38;;;;;;;10.38;3.60;;;;;;;33.52;20.86;100366.34;1715866;82;21196;-78
2023/09/13 10:18:59;;;;;;;5.95;3.62;;;;;;;33.58;20.96;100374.11;1714972;81;21324;-79
2023/09/13 10:22:06;;;;;;;11.57;3.60;;;;;;;33.66;20.83;100364.80;1725720;82;21958;-78
2023/09/13 10:25:32;;;;;;;13.55;3.62;;;;;;;33.55;20.46;100364.28;1830659;76;22290;-79
2023/09/13 10:28:41;;;;;;;6.60;3.62;;;;;;;33.62;20.54;100368.03;1800599;78;21965;-79
2023/09/13 10:31:56;;;;;;;8.08;3.85;;;;;;;33.67;20.35;100364.21;1731754;81;21149;-79
2023/09/13 10:35:06;;;;;;;7.12;3.42;;;;;;;33.82;19.94;100365.98;1794737;77;22336;-79
2023/09/13 10:38:28;;;;;;;8.55;4.10;;;;;;;33.90;20.00;100358.66;1775934;77;21598;-79
2023/09/13 10:41:39;;;;;;;15.83;3.37;;;;;;;34.02;19.97;100358.06;1782867;79;21290;-79
2023/09/13 10:44:48;;;;;;;11.55;4.10;;;;;;;34.14;19.84;100363.89;1764929;79;22461;-79
2023/09/13 10:51:34;;;;;;;4.80;3.72;;;;;;;33.97;20.29;100351.10;1844595;76;22166;-80
2023/09/13 10:54:40;;;;;;;11.12;4.17;;;;;;;33.67;20.54;100349.45;1800272;79;21295;-79
2023/09/13 10:58:03;;;;;;;8.50;3.98;;;;;;;33.85;20.43;100353.74;1786385;79;21268;-79
2023/09/13 11:01:10;;;;;;;8.15;4.25;;;;;;;33.76;20.46;100350.30;1791390;79;21291;-81
2023/09/13 11:04:16;;;;;;;10.58;3.67;;;;;;;33.61;20.48;100349.36;1787234;79;21257;-81
2023/09/13 11:07:26;;;;;;;12.43;4.33;;;;;;;33.29;20.91;100348.55;1788575;79;21280;-81
2023/09/13 11:10:39;;;;;;;9.98;4.08;;;;;;;33.24;20.66;100341.62;1850118;76;22218;-80
2023/09/13 11:13:49;;;;;;;13.08;3.85;;;;;;;33.20;20.70;100333.51;1773723;79;21854;-80
2023/09/13 11:16:57;;;;;;;6.63;3.40;;;;;;;33.36;20.60;100333.92;1754160;80;21334;-79
2023/09/13 11:20:24;;;;;;;9.53;3.87;;;;;;;33.53;20.57;100331.73;1751466;80;21294;-79
2023/09/13 11:23:29;;;;;;;8.38;4.03;;;;;;;33.51;20.45;100336.91;1749700;80;22230;-80
2023/09/13 11:26:56;;;;;;;11.63;3.95;;;;;;;33.84;20.05;100334.47;1753874;80;21307;-80
2023/09/13 11:30:08;;;;;;;8.98;4.15;;;;;;;33.87;19.97;100329.53;1773052;80;21374;-80
2023/09/13 11:33:15;;;;;;;9.50;4.05;;;;;;;33.91;19.98;100326.88;1731752;80;21832;-80
2023/09/13 11:36:27;;;;;;;6.95;3.45;;;;;;;34.19;19.78;100321.16;1761363;80;21291;-79
2023/09/13 11:39:34;;;;;;;7.35;3.50;;;;;;;34.00;19.91;100322.08;1732717;81;21350;-81
2023/09/13 11:42:40;;;;;;;9.00;4.00;;;;;;;34.02;19.75;100318.34;1726430;81;21314;-80
2023/09/13 11:45:47;;;;;;;14.93;3.47;;;;;;;33.94;19.85;100318.54;1731350;81;21309;-80
2023/09/13 11:48:57;;;;;;;11.10;3.35;;;;;;;33.65;20.08;100316.34;1740380;82;21351;-80
2023/09/13 11:52:05;;;;;;;10.70;4.10;;;;;;;33.62;19.97;100319.83;1734482;82;21318;-80
2023/09/13 11:55:14;;;;;;;8.50;3.30;;;;;;;33.86;19.77;100326.45;1739581;82;21315;-80
2023/09/13 11:58:23;;;;;;;7.40;3.37;;;;;;;33.68;20.04;100319.91;1706050;82;21945;-80
2023/09/13 12:01:31;;;;;;;6.15;3.27;;;;;;;33.82;19.79;100322.02;1726381;82;21331;-80
2023/09/13 12:04:40;;;;;;;11.22;4.10;;;;;;;33.83;19.70;100318.04;1719516;83;21994;-78
2023/09/13 12:07:47;;;;;;;10.32;3.80;;;;;;;33.93;19.70;100316.05;1731288;81;21344;-78
2023/09/13 12:10:56;;;;;;;5.53;3.52;;;;;;;34.01;19.83;100320.90;1730135;82;21345;-78
2023/09/13 12:14:03;;;;;;;4.80;3.27;;;;;;;33.91;19.85;100314.11;1724943;82;21304;-79
2023/09/13 12:17:09;;;;;;;11.95;3.50;;;;;;;34.06;19.73;100313.05;1787345;79;22489;-78
2023/09/13 12:20:17;;;;;;;17.15;4.10;;;;;;;34.05;19.56;100309.14;1770460;80;21210;-78
2023/09/13 12:23:25;;;;;;;15.95;4.95;;;;;;;33.94;19.37;100314.87;1776782;79;21874;-79
2023/09/13 12:26:30;;;;;;;11.55;3.98;;;;;;;33.98;19.15;100314.49;1768153;81;22601;-80
2023/09/13 12:29:39;;;;;;;15.30;3.67;;;;;;;33.98;19.12;100315.91;1769611;81;21919;-79
2023/09/13 12:32:48;;;;;;;16.65;3.90;;;;;;;33.75;19.41;100317.44;1770133;79;21373;-79
2023/09/13 12:35:51;;;;;;;8.58;3.55;;;;;;;33.79;19.29;100307.10;1725316;82;21327;-80
2023/09/13 12:38:59;;;;;;;28.12;3.85;;;;;;;34.07;19.27;100303.98;1779130;79;22424;-80
2023/09/13 12:42:04;;;;;;;11.63;3.58;;;;;;;34.19;19.32;100304.13;1774425;79;21295;-80
2023/09/13 12:45:12;;;;;;;8.48;3.52;;;;;;;34.20;19.32;100305.78;1729795;82;21295;-80
2023/09/13 12:48:17;;;;;;;6.70;3.30;;;;;;;34.01;19.64;100308.13;1768101;81;21323;-80
2023/09/13 12:51:31;;;;;;;9.70;3.98;;;;;;;33.89;19.64;100309.36;1771584;79;21950;-80
2023/09/13 12:54:36;;;;;;;12.68;3.87;;;;;;;33.75;19.75;100303.26;1791094;79;21814;-80
2023/09/13 12:57:43;;;;;;;11.28;4.47;;;;;;;33.82;19.60;100303.58;1787105;79;21285;-80
2023/09/13 13:00:59;;;;;;;6.55;3.45;;;;;;;33.80;19.57;100306.52;1779777;79;21243;-78
2023/09/13 13:04:17;;;;;;;6.72;3.52;;;;;;;33.76;19.42;100306.92;1783069;79;21338;-80
2023/09/13 13:07:32;;;;;;;8.20;3.70;;;;;;;33.83;19.32;100310.12;1707704;83;21323;-80
2023/09/13 13:10:37;;;;;;;6.55;4.03;;;;;;;33.82;19.39;100302.16;1775095;79;21334;-79
2023/09/13 13:13:47;;;;;;;7.15;3.47;;;;;;;33.72;19.27;100307.33;1708848;83;21331;-79
2023/09/13 13:17:03;;;;;;;13.80;3.45;;;;;;;33.67;19.42;100306.91;1741752;82;21342;-79
2023/09/13 13:20:19;;;;;;;7.80;4.35;;;;;;;33.60;19.58;100303.74;1706340;83;22413;-79
2023/09/13 13:23:26;;;;;;;8.88;3.90;;;;;;;33.49;19.68;100305.20;1670340;84;21308;-79
2023/09/13 13:26:33;;;;;;;11.30;3.77;;;;;;;33.51;19.59;100312.23;1694480;84;21430;-80
2023/09/13 13:29:38;;;;;;;7.90;3.12;;;;;;;33.45;19.63;100304.19;1695818;84;21348;-79
2023/09/13 13:32:43;;;;;;;10.53;3.60;;;;;;;33.32;19.85;100301.14;1694236;84;21339;-79
2023/09/13 13:35:49;;;;;;;10.55;3.90;;;;;;;33.41;19.63;100298.92;1696084;84;22612;-80
2023/09/13 13:38:56;;;;;;;8.28;4.70;;;;;;;33.39;19.71;100300.64;1700287;83;21411;-79
2023/09/13 13:42:03;;;;;;;10.60;4.22;;;;;;;33.31;19.82;100295.23;1695943;84;21363;-79
2023/09/13 13:45:10;;;;;;;11.05;4.25;;;;;;;33.09;19.85;100291.06;1696846;84;21352;-79
2023/09/13 13:48:15;;;;;;;6.15;4.08;;;;;;;33.09;20.10;100292.48;1695580;84;21352;-79
2023/09/13 13:51:22;;;;;;;10.82;3.87;;;;;;;33.28;20.01;100293.63;1696149;83;21343;-79
2023/09/13 13:54:28;;;;;;;7.90;4.65;;;;;;;33.15;20.22;100286.91;1706839;83;21316;-79
2023/09/13 13:57:34;;;;;;;12.05;4.10;;;;;;;33.16;20.08;100291.40;1707722;84;22686;-80
2023/09/13 14:00:40;;;;;;;10.82;3.92;;;;;;;32.99;20.40;100287.11;1688836;84;21910;-80
2023/09/13 14:03:47;;;;;;;8.83;3.65;;;;;;;33.02;20.52;100298.59;1709189;84;21319;-79
2023/09/13 14:06:54;;;;;;;8.60;4.25;;;;;;;32.94;20.62;100292.92;1712225;83;21314;-80
2023/09/13 14:09:59;;;;;;;9.35;4.58;;;;;;;33.05;20.36;100294.29;1719047;83;21316;-79
2023/09/13 14:13:05;;;;;;;10.08;4.50;;;;;;;32.86;20.67;100296.51;1672749;84;21379;-79
2023/09/13 14:16:11;;;;;;;6.62;4.22;;;;;;;32.71;20.71;100294.36;1691554;85;22189;-80
2023/09/13 14:19:16;;;;;;;13.68;4.22;;;;;;;32.67;20.86;100287.67;1690014;85;21327;-80
2023/09/13 14:22:21;;;;;;;11.53;4.85;;;;;;;32.58;20.88;100288.20;1690059;83;21343;-79